sensor_id;sensor_type;location;lat;lon;timestamp;pressure;altitude;pressure_sealevel;temperature;humidity
39681;BME280;26327;42.550;23.120;2024-03-29T00:01:48;92565.34;;;9.43;75.97
39681;BME280;26327;42.550;23.120;2024-03-29T00:04:13;92667.53;;;10.22;75.83
39681;BME280;26327;42.550;23.120;2024-03-29T00:06:39;92675.13;;;10.38;74.79
39681;BME280;26327;42.550;23.120;2024-03-29T00:09:04;92665.59;;;9.95;77.34
39681;BME280;26327;42.550;23.120;2024-03-29T00:11:30;92681.91;;;10.39;75.26
39681;BME280;26327;42.550;23.120;2024-03-29T00:13:56;92659.31;;;10.04;76.56
39681;BME280;26327;42.550;23.120;2024-03-29T00:16:22;92563.84;;;9.19;77.75
39681;BME280;26327;42.550;23.120;2024-03-29T00:18:51;92672.91;;;10.21;76.67
39681;BME280;26327;42.550;23.120;2024-03-29T00:21:16;92668.63;;;9.98;76.63
39681;BME280;26327;42.550;23.120;2024-03-29T00:23:42;92664.63;;;9.96;77.58
39681;BME280;26327;42.550;23.120;2024-03-29T00:26:09;92600.16;;;9.49;77.44
39681;BME280;26327;42.550;23.120;2024-03-29T00:28:34;92665.84;;;10.15;76.03
39681;BME280;26327;42.550;23.120;2024-03-29T00:30:59;92682.34;;;10.58;73.15
39681;BME280;26327;42.550;23.120;2024-03-29T00:33:25;92629.63;;;10.64;71.15
39681;BME280;26327;42.550;23.120;2024-03-29T00:35:50;92633.94;;;10.78;70.09
39681;BME280;26327;42.550;23.120;2024-03-29T00:38:16;92701.06;;;10.89;71.54
39681;BME280;26327;42.550;23.120;2024-03-29T00:40:41;92678.69;;;11.16;69.98
39681;BME280;26327;42.550;23.120;2024-03-29T00:43:07;92683.44;;;11.13;69.53
39681;BME280;26327;42.550;23.120;2024-03-29T00:45:32;92661.84;;;10.69;70.47
39681;BME280;26327;42.550;23.120;2024-03-29T00:47:58;92682.41;;;10.64;71.56
39681;BME280;26327;42.550;23.120;2024-03-29T00:50:23;92636.16;;;9.88;75.02
39681;BME280;26327;42.550;23.120;2024-03-29T00:52:49;92636.94;;;10.03;75.22
39681;BME280;26327;42.550;23.120;2024-03-29T00:55:15;92645.34;;;9.90;76.30
39681;BME280;26327;42.550;23.120;2024-03-29T00:57:41;92696.66;;;10.03;77.66
39681;BME280;26327;42.550;23.120;2024-03-29T01:00:07;92643.66;;;9.83;77.37
39681;BME280;26327;42.550;23.120;2024-03-29T01:02:32;92583.69;;;9.27;77.75
39681;BME280;26327;42.550;23.120;2024-03-29T01:04:57;92682.25;;;9.56;79.70
39681;BME280;26327;42.550;23.120;2024-03-29T01:07:23;92683.22;;;9.85;78.18
39681;BME280;26327;42.550;23.120;2024-03-29T01:09:48;92701.19;;;9.86;78.21
39681;BME280;26327;42.550;23.120;2024-03-29T01:12:14;92705.78;;;9.99;76.88
39681;BME280;26327;42.550;23.120;2024-03-29T01:14:39;92654.13;;;9.89;76.01
39681;BME280;26327;42.550;23.120;2024-03-29T01:17:04;92654.94;;;10.04;75.10
39681;BME280;26327;42.550;23.120;2024-03-29T01:19:32;92731.44;;;10.53;73.44
39681;BME280;26327;42.550;23.120;2024-03-29T01:21:57;92692.34;;;10.10;74.58
39681;BME280;26327;42.550;23.120;2024-03-29T01:24:23;92697.06;;;10.36;73.98
39681;BME280;26327;42.550;23.120;2024-03-29T01:26:49;92705.72;;;10.58;72.73
39681;BME280;26327;42.550;23.120;2024-03-29T01:29:15;92707.75;;;10.84;71.17
39681;BME280;26327;42.550;23.120;2024-03-29T01:31:40;92671.94;;;10.58;71.76
39681;BME280;26327;42.550;23.120;2024-03-29T01:34:05;92722.19;;;10.65;72.26
39681;BME280;26327;42.550;23.120;2024-03-29T01:36:31;92648.94;;;10.04;72.55
39681;BME280;26327;42.550;23.120;2024-03-29T01:38:56;92646.59;;;10.09;73.15
39681;BME280;26327;42.550;23.120;2024-03-29T01:41:23;92705.75;;;10.43;72.76
39681;BME280;26327;42.550;23.120;2024-03-29T01:43:50;92725.63;;;10.51;73.60
39681;BME280;26327;42.550;23.120;2024-03-29T01:46:18;92714.44;;;10.35;73.78
39681;BME280;26327;42.550;23.120;2024-03-29T01:48:44;92708.19;;;10.00;74.94
39681;BME280;26327;42.550;23.120;2024-03-29T01:51:10;92713.91;;;10.10;75.24
39681;BME280;26327;42.550;23.120;2024-03-29T01:53:37;92682.03;;;10.17;73.18
39681;BME280;26327;42.550;23.120;2024-03-29T01:56:03;92711.69;;;10.07;74.12
39681;BME280;26327;42.550;23.120;2024-03-29T01:58:30;92725.47;;;10.08;74.43
39681;BME280;26327;42.550;23.120;2024-03-29T02:00:58;92714.00;;;9.88;75.64
39681;BME280;26327;42.550;23.120;2024-03-29T02:03:25;92707.63;;;9.90;75.43
39681;BME280;26327;42.550;23.120;2024-03-29T02:05:51;92728.84;;;9.79;76.31
39681;BME280;26327;42.550;23.120;2024-03-29T02:08:17;92716.22;;;9.46;78.70
39681;BME280;26327;42.550;23.120;2024-03-29T02:10:43;92720.78;;;9.07;82.48
39681;BME280;26327;42.550;23.120;2024-03-29T02:13:10;92716.56;;;9.06;82.66
39681;BME280;26327;42.550;23.120;2024-03-29T02:15:36;92718.06;;;9.00;82.75
39681;BME280;26327;42.550;23.120;2024-03-29T02:18:01;92739.03;;;9.66;80.55
39681;BME280;26327;42.550;23.120;2024-03-29T02:20:27;92741.72;;;9.58;79.36
39681;BME280;26327;42.550;23.120;2024-03-29T02:23:10;92708.22;;;8.73;82.08
39681;BME280;26327;42.550;23.120;2024-03-29T02:25:37;92765.16;;;9.64;79.23
39681;BME280;26327;42.550;23.120;2024-03-29T02:28:03;92772.50;;;9.75;78.21
39681;BME280;26327;42.550;23.120;2024-03-29T02:30:30;92774.13;;;9.39;79.10
39681;BME280;26327;42.550;23.120;2024-03-29T02:32:56;92773.94;;;9.40;79.93
39681;BME280;26327;42.550;23.120;2024-03-29T02:35:21;92782.84;;;9.23;81.43
39681;BME280;26327;42.550;23.120;2024-03-29T02:37:47;92787.13;;;8.85;84.54
39681;BME280;26327;42.550;23.120;2024-03-29T02:40:12;92775.78;;;8.63;85.84
39681;BME280;26327;42.550;23.120;2024-03-29T02:42:37;92759.25;;;8.64;85.52
39681;BME280;26327;42.550;23.120;2024-03-29T02:45:04;92808.00;;;9.37;83.58
39681;BME280;26327;42.550;23.120;2024-03-29T02:47:29;92805.16;;;9.70;80.88
39681;BME280;26327;42.550;23.120;2024-03-29T02:49:54;92755.31;;;9.60;79.10
39681;BME280;26327;42.550;23.120;2024-03-29T02:52:20;92818.50;;;9.44;79.51
39681;BME280;26327;42.550;23.120;2024-03-29T02:54:45;92793.06;;;9.39;79.99
39681;BME280;26327;42.550;23.120;2024-03-29T02:57:11;92829.22;;;9.78;80.04
39681;BME280;26327;42.550;23.120;2024-03-29T02:59:36;92827.31;;;9.95;78.12
39681;BME280;26327;42.550;23.120;2024-03-29T03:02:01;92826.31;;;9.36;80.06
39681;BME280;26327;42.550;23.120;2024-03-29T03:04:27;92830.69;;;8.59;84.74
39681;BME280;26327;42.550;23.120;2024-03-29T03:06:52;92773.13;;;8.32;85.67
39681;BME280;26327;42.550;23.120;2024-03-29T03:09:18;92770.72;;;8.93;82.13
39681;BME280;26327;42.550;23.120;2024-03-29T03:12:01;92838.50;;;9.58;80.16
39681;BME280;26327;42.550;23.120;2024-03-29T03:14:27;92821.00;;;8.52;85.56
39681;BME280;26327;42.550;23.120;2024-03-29T03:16:52;92823.63;;;8.28;87.41
39681;BME280;26327;42.550;23.120;2024-03-29T03:19:18;92858.25;;;9.13;83.38
39681;BME280;26327;42.550;23.120;2024-03-29T03:21:43;92788.66;;;9.02;81.61
39681;BME280;26327;42.550;23.120;2024-03-29T03:24:09;92841.16;;;9.50;80.32
39681;BME280;26327;42.550;23.120;2024-03-29T03:26:37;92840.09;;;9.36;79.06
39681;BME280;26327;42.550;23.120;2024-03-29T03:29:02;92808.66;;;8.86;81.20
39681;BME280;26327;42.550;23.120;2024-03-29T03:31:28;92795.25;;;7.87;87.18
39681;BME280;26327;42.550;23.120;2024-03-29T03:33:53;92849.09;;;8.64;85.93
39681;BME280;26327;42.550;23.120;2024-03-29T03:36:18;92805.91;;;8.87;82.99
39681;BME280;26327;42.550;23.120;2024-03-29T03:38:44;92855.38;;;8.69;85.87
39681;BME280;26327;42.550;23.120;2024-03-29T03:41:09;92877.03;;;9.38;83.18
39681;BME280;26327;42.550;23.120;2024-03-29T03:43:34;92894.13;;;9.02;81.33
39681;BME280;26327;42.550;23.120;2024-03-29T03:46:00;92890.97;;;9.14;80.44
39681;BME280;26327;42.550;23.120;2024-03-29T03:48:26;92874.53;;;8.60;82.66
39681;BME280;26327;42.550;23.120;2024-03-29T03:50:54;92898.97;;;8.49;83.96
39681;BME280;26327;42.550;23.120;2024-03-29T03:53:19;92907.94;;;7.90;87.62
39681;BME280;26327;42.550;23.120;2024-03-29T03:55:45;92868.50;;;8.68;83.74
39681;BME280;26327;42.550;23.120;2024-03-29T03:58:10;92859.59;;;8.15;84.21
39681;BME280;26327;42.550;23.120;2024-03-29T04:00:37;92840.34;;;6.87;91.25
39681;BME280;26327;42.550;23.120;2024-03-29T04:03:02;92834.16;;;6.72;94.22
39681;BME280;26327;42.550;23.120;2024-03-29T04:05:29;92849.22;;;7.01;93.04
39681;BME280;26327;42.550;23.120;2024-03-29T04:07:56;92916.03;;;7.95;90.27
39681;BME280;26327;42.550;23.120;2024-03-29T04:10:22;92851.88;;;7.74;86.56
39681;BME280;26327;42.550;23.120;2024-03-29T04:12:47;92873.34;;;8.15;85.14
39681;BME280;26327;42.550;23.120;2024-03-29T04:15:13;92935.25;;;8.58;84.94
39681;BME280;26327;42.550;23.120;2024-03-29T04:17:38;92941.66;;;8.78;83.74
39681;BME280;26327;42.550;23.120;2024-03-29T04:20:04;92953.97;;;9.15;82.62
39681;BME280;26327;42.550;23.120;2024-03-29T04:22:30;92890.53;;;8.64;81.76
39681;BME280;26327;42.550;23.120;2024-03-29T04:24:56;92914.66;;;8.64;82.46
39681;BME280;26327;42.550;23.120;2024-03-29T04:27:22;92960.50;;;8.56;83.97
39681;BME280;26327;42.550;23.120;2024-03-29T04:29:50;92960.34;;;8.96;82.25
39681;BME280;26327;42.550;23.120;2024-03-29T04:32:16;92978.19;;;8.91;82.25
39681;BME280;26327;42.550;23.120;2024-03-29T04:34:41;92968.78;;;8.98;82.15
39681;BME280;26327;42.550;23.120;2024-03-29T04:37:07;92954.22;;;8.89;81.23
39681;BME280;26327;42.550;23.120;2024-03-29T04:39:32;92980.78;;;8.91;81.81
39681;BME280;26327;42.550;23.120;2024-03-29T04:41:58;92907.25;;;8.53;79.30
39681;BME280;26327;42.550;23.120;2024-03-29T04:44:27;92928.81;;;8.05;83.31
39681;BME280;26327;42.550;23.120;2024-03-29T04:46:53;92965.00;;;8.70;80.99
39681;BME280;26327;42.550;23.120;2024-03-29T04:49:23;92933.31;;;8.35;81.92
39681;BME280;26327;42.550;23.120;2024-03-29T04:51:56;92945.81;;;8.07;84.53
39681;BME280;26327;42.550;23.120;2024-03-29T04:54:21;92976.19;;;8.30;84.22
39681;BME280;26327;42.550;23.120;2024-03-29T04:56:46;92928.78;;;7.48;88.12
39681;BME280;26327;42.550;23.120;2024-03-29T04:59:12;93001.94;;;7.32;92.12
39681;BME280;26327;42.550;23.120;2024-03-29T05:01:39;93006.44;;;8.05;91.23
39681;BME280;26327;42.550;23.120;2024-03-29T05:04:04;92938.81;;;8.32;87.78
39681;BME280;26327;42.550;23.120;2024-03-29T05:06:31;92972.63;;;8.47;87.59
39681;BME280;26327;42.550;23.120;2024-03-29T05:08:56;92953.06;;;8.44;87.47
39681;BME280;26327;42.550;23.120;2024-03-29T05:11:22;92999.63;;;8.77;87.16
39681;BME280;26327;42.550;23.120;2024-03-29T05:13:47;92959.50;;;8.48;86.94
39681;BME280;26327;42.550;23.120;2024-03-29T05:16:12;93011.88;;;8.91;87.59
39681;BME280;26327;42.550;23.120;2024-03-29T05:18:39;92981.53;;;8.52;88.48
39681;BME280;26327;42.550;23.120;2024-03-29T05:21:04;93007.00;;;8.96;88.34
39681;BME280;26327;42.550;23.120;2024-03-29T05:23:30;93009.44;;;8.98;88.67
39681;BME280;26327;42.550;23.120;2024-03-29T05:25:55;92952.97;;;8.77;88.02
39681;BME280;26327;42.550;23.120;2024-03-29T05:28:21;92905.25;;;8.71;87.47
39681;BME280;26327;42.550;23.120;2024-03-29T05:30:46;93026.59;;;9.77;86.54
39681;BME280;26327;42.550;23.120;2024-03-29T05:33:12;93018.75;;;9.93;83.94
39681;BME280;26327;42.550;23.120;2024-03-29T05:35:37;93012.25;;;9.89;83.19
39681;BME280;26327;42.550;23.120;2024-03-29T05:38:02;93029.91;;;10.25;82.48
39681;BME280;26327;42.550;23.120;2024-03-29T05:40:28;93008.41;;;10.08;82.09
39681;BME280;26327;42.550;23.120;2024-03-29T05:42:54;92995.44;;;10.08;82.43
39681;BME280;26327;42.550;23.120;2024-03-29T05:45:27;93037.97;;;10.53;81.17
39681;BME280;26327;42.550;23.120;2024-03-29T05:47:54;93041.59;;;10.66;79.73
39681;BME280;26327;42.550;23.120;2024-03-29T05:50:20;92991.13;;;10.46;78.87
39681;BME280;26327;42.550;23.120;2024-03-29T05:52:46;93025.38;;;10.79;78.19
39681;BME280;26327;42.550;23.120;2024-03-29T05:55:11;93036.09;;;10.99;76.62
39681;BME280;26327;42.550;23.120;2024-03-29T05:57:36;93003.66;;;11.10;77.23
39681;BME280;26327;42.550;23.120;2024-03-29T06:00:12;93016.91;;;11.44;74.33
39681;BME280;26327;42.550;23.120;2024-03-29T06:02:42;92999.78;;;11.50;73.92
39681;BME280;26327;42.550;23.120;2024-03-29T06:05:08;92987.97;;;11.68;72.55
39681;BME280;26327;42.550;23.120;2024-03-29T06:07:34;93047.72;;;12.49;69.46
39681;BME280;26327;42.550;23.120;2024-03-29T06:10:00;93001.25;;;12.52;67.24
39681;BME280;26327;42.550;23.120;2024-03-29T06:12:29;93049.94;;;12.73;64.77
39681;BME280;26327;42.550;23.120;2024-03-29T06:14:54;93025.47;;;12.46;63.24
39681;BME280;26327;42.550;23.120;2024-03-29T06:17:38;93039.78;;;13.06;62.21
39681;BME280;26327;42.550;23.120;2024-03-29T06:20:04;93047.28;;;13.85;59.15
39681;BME280;26327;42.550;23.120;2024-03-29T06:22:30;93028.25;;;14.04;58.23
39681;BME280;26327;42.550;23.120;2024-03-29T06:24:56;93030.72;;;14.26;58.73
39681;BME280;26327;42.550;23.120;2024-03-29T06:27:33;93040.09;;;14.74;56.77
39681;BME280;26327;42.550;23.120;2024-03-29T06:29:59;93051.31;;;15.34;55.10
39681;BME280;26327;42.550;23.120;2024-03-29T06:32:24;93031.78;;;15.63;52.68
39681;BME280;26327;42.550;23.120;2024-03-29T06:34:50;93032.72;;;15.82;51.02
39681;BME280;26327;42.550;23.120;2024-03-29T06:37:15;93013.84;;;17.06;46.09
39681;BME280;26327;42.550;23.120;2024-03-29T06:39:41;92986.47;;;18.12;42.41
39681;BME280;26327;42.550;23.120;2024-03-29T06:42:08;93017.56;;;19.52;39.89
39681;BME280;26327;42.550;23.120;2024-03-29T06:44:34;92980.16;;;20.58;36.18
39681;BME280;26327;42.550;23.120;2024-03-29T06:47:00;93015.66;;;22.02;34.03
39681;BME280;26327;42.550;23.120;2024-03-29T06:49:25;92987.22;;;21.92;33.04
39681;BME280;26327;42.550;23.120;2024-03-29T06:51:51;92980.22;;;22.03;32.74
39681;BME280;26327;42.550;23.120;2024-03-29T06:54:16;92994.25;;;23.01;30.61
39681;BME280;26327;42.550;23.120;2024-03-29T06:56:42;93030.28;;;23.29;31.32
39681;BME280;26327;42.550;23.120;2024-03-29T06:59:07;93030.84;;;23.04;30.00
39681;BME280;26327;42.550;23.120;2024-03-29T07:01:33;93025.41;;;23.52;29.62
39681;BME280;26327;42.550;23.120;2024-03-29T07:03:59;92982.31;;;22.22;31.50
39681;BME280;26327;42.550;23.120;2024-03-29T07:06:24;93036.66;;;23.33;29.13
39681;BME280;26327;42.550;23.120;2024-03-29T07:08:50;92975.84;;;21.91;31.03
39681;BME280;26327;42.550;23.120;2024-03-29T07:11:15;93040.84;;;22.97;31.33
39681;BME280;26327;42.550;23.120;2024-03-29T07:13:41;93025.06;;;22.58;31.11
39681;BME280;26327;42.550;23.120;2024-03-29T07:16:06;93052.63;;;23.38;29.27
39681;BME280;26327;42.550;23.120;2024-03-29T07:18:34;93022.38;;;23.66;29.35
39681;BME280;26327;42.550;23.120;2024-03-29T07:21:00;93012.69;;;23.92;29.34
39681;BME280;26327;42.550;23.120;2024-03-29T07:23:25;93045.16;;;24.66;27.84
39681;BME280;26327;42.550;23.120;2024-03-29T07:26:02;93005.91;;;24.16;28.06
39681;BME280;26327;42.550;23.120;2024-03-29T07:28:28;93049.66;;;24.61;27.35
39681;BME280;26327;42.550;23.120;2024-03-29T07:30:53;93020.28;;;24.25;27.94
39681;BME280;26327;42.550;23.120;2024-03-29T07:33:23;93050.47;;;24.61;27.40
39681;BME280;26327;42.550;23.120;2024-03-29T07:35:54;93014.41;;;23.66;27.37
39681;BME280;26327;42.550;23.120;2024-03-29T07:38:20;93054.19;;;24.60;26.16
39681;BME280;26327;42.550;23.120;2024-03-29T07:40:50;93014.34;;;24.65;27.92
39681;BME280;26327;42.550;23.120;2024-03-29T07:43:15;93054.63;;;25.55;26.32
39681;BME280;26327;42.550;23.120;2024-03-29T07:45:41;93064.22;;;25.66;26.34
39681;BME280;26327;42.550;23.120;2024-03-29T07:48:12;93052.44;;;26.13;24.95
39681;BME280;26327;42.550;23.120;2024-03-29T07:50:42;93057.28;;;25.76;24.95
39681;BME280;26327;42.550;23.120;2024-03-29T07:53:08;93053.75;;;24.99;25.65
39681;BME280;26327;42.550;23.120;2024-03-29T07:55:36;93052.78;;;25.56;25.30
39681;BME280;26327;42.550;23.120;2024-03-29T07:58:02;93054.88;;;25.49;25.36
39681;BME280;26327;42.550;23.120;2024-03-29T08:00:31;93058.88;;;25.82;24.62
39681;BME280;26327;42.550;23.120;2024-03-29T08:02:56;93055.69;;;25.39;24.93
39681;BME280;26327;42.550;23.120;2024-03-29T08:05:22;93068.69;;;25.25;25.51
39681;BME280;26327;42.550;23.120;2024-03-29T08:07:47;93052.53;;;24.49;26.42
39681;BME280;26327;42.550;23.120;2024-03-29T08:10:13;93056.97;;;25.06;25.38
39681;BME280;26327;42.550;23.120;2024-03-29T08:12:38;93068.69;;;25.25;25.85
39681;BME280;26327;42.550;23.120;2024-03-29T08:15:04;93057.78;;;25.12;26.39
39681;BME280;26327;42.550;23.120;2024-03-29T08:17:30;93054.53;;;26.26;25.30
39681;BME280;26327;42.550;23.120;2024-03-29T08:19:55;93038.78;;;26.40;24.48
39681;BME280;26327;42.550;23.120;2024-03-29T08:22:21;93036.34;;;26.54;24.71
39681;BME280;26327;42.550;23.120;2024-03-29T08:24:46;93036.91;;;26.51;23.75
39681;BME280;26327;42.550;23.120;2024-03-29T08:27:12;93039.63;;;26.90;25.20
39681;BME280;26327;42.550;23.120;2024-03-29T08:29:37;93046.03;;;27.72;24.18
39681;BME280;26327;42.550;23.120;2024-03-29T08:32:03;92968.56;;;26.70;23.52
39681;BME280;26327;42.550;23.120;2024-03-29T08:34:29;93049.59;;;27.63;23.28
39681;BME280;26327;42.550;23.120;2024-03-29T08:37:00;93026.41;;;28.64;22.78
39681;BME280;26327;42.550;23.120;2024-03-29T08:39:26;93026.03;;;28.94;22.71
39681;BME280;26327;42.550;23.120;2024-03-29T08:41:52;93004.75;;;27.59;22.02
39681;BME280;26327;42.550;23.120;2024-03-29T08:44:17;93011.97;;;26.76;22.63
39681;BME280;26327;42.550;23.120;2024-03-29T08:46:42;93020.78;;;27.88;22.17
39681;BME280;26327;42.550;23.120;2024-03-29T08:49:08;93032.09;;;28.57;22.11
39681;BME280;26327;42.550;23.120;2024-03-29T08:51:33;92999.31;;;28.22;23.65
39681;BME280;26327;42.550;23.120;2024-03-29T08:53:58;92981.91;;;29.10;22.30
39681;BME280;26327;42.550;23.120;2024-03-29T08:56:24;93020.44;;;30.26;21.45
39681;BME280;26327;42.550;23.120;2024-03-29T08:58:50;93016.69;;;30.68;20.85
39681;BME280;26327;42.550;23.120;2024-03-29T09:01:15;92979.34;;;30.44;19.97
39681;BME280;26327;42.550;23.120;2024-03-29T09:03:41;93015.88;;;30.26;22.53
39681;BME280;26327;42.550;23.120;2024-03-29T09:06:06;93006.13;;;30.03;21.67
39681;BME280;26327;42.550;23.120;2024-03-29T09:08:31;92960.25;;;28.93;20.64
39681;BME280;26327;42.550;23.120;2024-03-29T09:10:57;93005.91;;;29.15;21.47
39681;BME280;26327;42.550;23.120;2024-03-29T09:13:23;93004.25;;;30.58;20.86
39681;BME280;26327;42.550;23.120;2024-03-29T09:15:49;92963.72;;;30.87;19.25
39681;BME280;26327;42.550;23.120;2024-03-29T09:18:14;92971.50;;;30.61;18.67
39681;BME280;26327;42.550;23.120;2024-03-29T09:21:00;92954.81;;;29.96;19.71
39681;BME280;26327;42.550;23.120;2024-03-29T09:23:27;92949.03;;;30.57;20.76
39681;BME280;26327;42.550;23.120;2024-03-29T09:25:58;92952.00;;;31.42;17.41
39681;BME280;26327;42.550;23.120;2024-03-29T09:28:24;92973.47;;;30.56;18.50
39681;BME280;26327;42.550;23.120;2024-03-29T09:30:50;92938.94;;;31.71;17.96
39681;BME280;26327;42.550;23.120;2024-03-29T09:33:15;92984.72;;;32.76;18.44
39681;BME280;26327;42.550;23.120;2024-03-29T09:35:41;92967.88;;;32.14;17.94
39681;BME280;26327;42.550;23.120;2024-03-29T09:38:06;92963.28;;;32.37;18.28
39681;BME280;26327;42.550;23.120;2024-03-29T09:40:32;92957.25;;;31.47;18.00
39681;BME280;26327;42.550;23.120;2024-03-29T09:43:00;92946.88;;;31.31;18.64
39681;BME280;26327;42.550;23.120;2024-03-29T09:45:30;92953.97;;;32.12;18.66
39681;BME280;26327;42.550;23.120;2024-03-29T09:47:59;92937.56;;;32.70;18.03
39681;BME280;26327;42.550;23.120;2024-03-29T09:50:26;92945.81;;;31.63;18.00
39681;BME280;26327;42.550;23.120;2024-03-29T09:52:51;92873.00;;;32.79;17.49
39681;BME280;26327;42.550;23.120;2024-03-29T09:55:19;92896.19;;;33.70;16.37
39681;BME280;26327;42.550;23.120;2024-03-29T09:57:45;92928.22;;;33.54;15.71
39681;BME280;26327;42.550;23.120;2024-03-29T10:00:11;92929.84;;;32.95;18.04
39681;BME280;26327;42.550;23.120;2024-03-29T10:02:37;92884.25;;;33.88;15.17
39681;BME280;26327;42.550;23.120;2024-03-29T10:05:06;92920.19;;;33.20;16.06
39681;BME280;26327;42.550;23.120;2024-03-29T10:07:34;92894.22;;;33.15;16.75
39681;BME280;26327;42.550;23.120;2024-03-29T10:10:01;92875.84;;;33.81;15.48
39681;BME280;26327;42.550;23.120;2024-03-29T10:12:28;92878.44;;;33.69;15.89
39681;BME280;26327;42.550;23.120;2024-03-29T10:14:54;92933.72;;;32.54;16.63
39681;BME280;26327;42.550;23.120;2024-03-29T10:17:35;92931.72;;;33.46;15.48
39681;BME280;26327;42.550;23.120;2024-03-29T10:20:03;92907.00;;;33.61;16.09
39681;BME280;26327;42.550;23.120;2024-03-29T10:22:30;92886.84;;;33.67;15.94
39681;BME280;26327;42.550;23.120;2024-03-29T10:25:00;92876.09;;;33.50;15.96
39681;BME280;26327;42.550;23.120;2024-03-29T10:27:26;92871.88;;;33.87;15.95
39681;BME280;26327;42.550;23.120;2024-03-29T10:29:55;92880.22;;;34.03;15.86
39681;BME280;26327;42.550;23.120;2024-03-29T10:32:20;92895.53;;;33.73;15.63
39681;BME280;26327;42.550;23.120;2024-03-29T10:34:48;92916.84;;;33.23;15.81
39681;BME280;26327;42.550;23.120;2024-03-29T10:37:14;92910.16;;;33.63;16.08
39681;BME280;26327;42.550;23.120;2024-03-29T10:39:44;92907.63;;;34.14;15.76
39681;BME280;26327;42.550;23.120;2024-03-29T10:42:10;92872.50;;;32.77;16.86
39681;BME280;26327;42.550;23.120;2024-03-29T10:44:38;92875.28;;;29.36;19.04
39681;BME280;26327;42.550;23.120;2024-03-29T10:47:06;92877.69;;;29.79;19.02
39681;BME280;26327;42.550;23.120;2024-03-29T10:49:32;92849.75;;;31.29;18.70
39681;BME280;26327;42.550;23.120;2024-03-29T10:51:59;92893.41;;;33.23;17.53
39681;BME280;26327;42.550;23.120;2024-03-29T10:54:25;92901.00;;;33.47;16.99
39681;BME280;26327;42.550;23.120;2024-03-29T10:56:59;92899.63;;;33.79;16.90
39681;BME280;26327;42.550;23.120;2024-03-29T10:59:44;92903.13;;;35.06;16.10
39681;BME280;26327;42.550;23.120;2024-03-29T11:02:27;92912.50;;;34.79;15.71
39681;BME280;26327;42.550;23.120;2024-03-29T11:04:58;92884.81;;;32.61;16.77
39681;BME280;26327;42.550;23.120;2024-03-29T11:07:26;92864.25;;;33.42;16.69
39681;BME280;26327;42.550;23.120;2024-03-29T11:09:56;92899.59;;;34.34;16.15
39681;BME280;26327;42.550;23.120;2024-03-29T11:12:25;92899.34;;;34.78;16.44
39681;BME280;26327;42.550;23.120;2024-03-29T11:15:00;92903.81;;;34.94;15.37
39681;BME280;26327;42.550;23.120;2024-03-29T11:17:29;92895.66;;;34.61;14.07
39681;BME280;26327;42.550;23.120;2024-03-29T11:19:56;92879.66;;;36.21;13.05
39681;BME280;26327;42.550;23.120;2024-03-29T11:22:22;92889.81;;;37.26;12.58
39681;BME280;26327;42.550;23.120;2024-03-29T11:24:50;92879.22;;;36.07;13.67
39681;BME280;26327;42.550;23.120;2024-03-29T11:27:15;92863.75;;;36.69;12.47
39681;BME280;26327;42.550;23.120;2024-03-29T11:29:42;92890.84;;;36.32;14.07
39681;BME280;26327;42.550;23.120;2024-03-29T11:32:10;92890.53;;;34.89;14.84
39681;BME280;26327;42.550;23.120;2024-03-29T11:34:43;92890.88;;;34.29;14.04
39681;BME280;26327;42.550;23.120;2024-03-29T11:37:12;92851.34;;;34.03;13.67
39681;BME280;26327;42.550;23.120;2024-03-29T11:39:47;92851.88;;;34.56;14.21
39681;BME280;26327;42.550;23.120;2024-03-29T11:42:13;92877.66;;;36.06;13.36
39681;BME280;26327;42.550;23.120;2024-03-29T11:44:38;92848.41;;;37.13;11.68
39681;BME280;26327;42.550;23.120;2024-03-29T11:47:06;92851.16;;;36.36;13.48
39681;BME280;26327;42.550;23.120;2024-03-29T11:49:32;92866.81;;;36.55;14.18
39681;BME280;26327;42.550;23.120;2024-03-29T11:52:05;92820.41;;;34.09;14.51
39681;BME280;26327;42.550;23.120;2024-03-29T11:54:38;92882.63;;;33.96;13.82
39681;BME280;26327;42.550;23.120;2024-03-29T11:57:03;92849.31;;;34.59;13.37
39681;BME280;26327;42.550;23.120;2024-03-29T11:59:29;92852.25;;;34.16;15.26
39681;BME280;26327;42.550;23.120;2024-03-29T12:01:54;92889.13;;;34.62;14.31
39681;BME280;26327;42.550;23.120;2024-03-29T12:04:21;92849.28;;;34.38;14.14
39681;BME280;26327;42.550;23.120;2024-03-29T12:06:46;92851.22;;;34.59;14.82
39681;BME280;26327;42.550;23.120;2024-03-29T12:09:13;92888.81;;;35.06;14.89
39681;BME280;26327;42.550;23.120;2024-03-29T12:11:38;92848.91;;;34.19;16.11
39681;BME280;26327;42.550;23.120;2024-03-29T12:14:11;92857.50;;;34.13;14.86
39681;BME280;26327;42.550;23.120;2024-03-29T12:16:44;92881.41;;;34.52;13.85
39681;BME280;26327;42.550;23.120;2024-03-29T12:19:10;92862.81;;;34.59;13.58
39681;BME280;26327;42.550;23.120;2024-03-29T12:21:36;92882.44;;;34.39;14.63
39681;BME280;26327;42.550;23.120;2024-03-29T12:24:01;92880.94;;;34.21;14.69
39681;BME280;26327;42.550;23.120;2024-03-29T12:26:26;92878.44;;;35.49;13.85
39681;BME280;26327;42.550;23.120;2024-03-29T12:28:55;92876.63;;;33.35;14.85
39681;BME280;26327;42.550;23.120;2024-03-29T12:31:21;92872.78;;;33.44;15.14
39681;BME280;26327;42.550;23.120;2024-03-29T12:33:51;92879.41;;;34.11;14.94
39681;BME280;26327;42.550;23.120;2024-03-29T12:36:17;92878.75;;;33.67;14.61
39681;BME280;26327;42.550;23.120;2024-03-29T12:38:45;92872.94;;;34.62;15.23
39681;BME280;26327;42.550;23.120;2024-03-29T12:41:13;92866.44;;;34.34;15.19
39681;BME280;26327;42.550;23.120;2024-03-29T12:43:38;92820.53;;;33.28;15.00
39681;BME280;26327;42.550;23.120;2024-03-29T12:46:04;92828.16;;;32.22;15.68
39681;BME280;26327;42.550;23.120;2024-03-29T12:48:29;92862.03;;;32.49;15.78
39681;BME280;26327;42.550;23.120;2024-03-29T12:50:55;92865.34;;;32.29;15.80